• Join FlightAware (Why Join?)
  • Login
  • US Flag 
02:11PM EDT


 

Airport Tracker/Info


-or-


 

Live Flight TrackerFlight Track Log ✈ N403QS ✈ 10-Apr-2013 ✈ KSAT - MYNN / NAS

Flight Track Log - Related Links

Times and Time Zones

All times are in EDT time to prevent confusion due to time zone crossing. See the N403QS flight status page for this flight to view local times or setup timezone preferences in your user account.

Time Position Orientation Groundspeed Altitude Reporting Facility
EDT Latitude Longitude Course Direction KTS MPH feet Rate Location/Type
11:17AM 29.5483 -98.4919 312° West 166 191 2,100  Level Houston Center
11:18AM 29.5892 -98.5447 312° West 222 255 4,500 2,820 Climbing Houston Center
11:19AM 29.6547 -98.5186 19° North 280 322 7,800 2,760 Climbing Houston Center
11:20AM 29.6586 -98.4250 87° East 294 338 10,300 2,460 Climbing Houston Center
11:22AM 29.6572 -98.3044 91° East 349 402 13,000 2,460 Climbing Houston Center
11:23AM 29.6556 -98.1886 91° East 361 415 15,400 2,160 Climbing Houston Center
11:24AM 29.6539 -98.0661 91° East 382 440 17,600 2,340 Climbing Houston Center
11:25AM 29.6519 -97.9236 91° East 416 479 20,300 1,980 Climbing Houston Center
11:26AM 29.6511 -97.7978 90° East 424 488 21,800 1,740 Climbing Houston Center
11:27AM 29.6531 -97.6531 89° East 447 514 24,000 1,980 Climbing Houston Center
11:28AM 29.6539 -97.5061 90° East 456 525 25,900 1,740 Climbing Houston Center
11:29AM 29.6367 -97.3247 96° East 476 548 27,600 1,560 Climbing Houston Center
11:30AM 29.6219 -97.1653 96° East 495 570 29,200 1,620 Climbing Houston Center
11:31AM 29.6072 -97.0025 96° East 504 580 31,000 1,740 Climbing Houston Center
11:32AM 29.5903 -96.8383 97° East 509 586 32,900 1,620 Climbing Houston Center
11:33AM 29.5731 -96.6600 96° East 514 592 34,400 1,080 Climbing Houston Center
11:34AM 29.5569 -96.5033 97° East 527 606 35,200 780 Climbing Houston Center
11:35AM 29.5394 -96.3275 96° East 549 632 36,100 1,200 Climbing Houston Center
11:36AM 29.5217 -96.1500 97° East 558 642 37,800 1,440 Climbing Houston Center
11:37AM 29.5019 -95.9692 97° East 548 631 39,100 1,320 Climbing Houston Center
11:38AM 29.4822 -95.7686 96° East 551 634 40,600 900 Climbing Houston Center
11:39AM 29.4633 -95.5950 97° East 550 633 41,000 180 Climbing Houston Center
11:40AM 29.4442 -95.4203 97° East 552 635 41,000  Level Houston Center
11:41AM 29.4242 -95.2414 97° East 556 640 41,000  Level Houston Center
11:42AM 29.4058 -95.0664 97° East 560 644 41,000  Level Houston Center
11:43AM 29.3831 -94.8564 97° East 556 640 41,000  Level Houston Center
11:44AM 29.3636 -94.6847 97° East 560 644 41,000  Level Houston Center
11:45AM 29.3439 -94.5094 97° East 559 643 41,000  Level Houston Center
11:46AM 29.3239 -94.3333 97° East 560 644 41,000 480 Level Houston Center
11:47AM 29.3028 -94.1567 98° East 561 646 42,100 1,560 Climbing Houston Center
11:48AM 29.2792 -93.9569 98° East 538 619 44,300 1,320 Climbing Houston Center
11:49AM 29.2614 -93.7964 97° East 518 596 44,900 300 Climbing Houston Center
11:51AM 29.2400 -93.6339 99° East 516 594 45,000  Climbing Houston Center
11:52AM 29.2178 -93.4703 99° East 520 598 45,000  Level Houston Center
11:53AM 29.1950 -93.2933 98° East 525 604 45,000  Level Houston Center
11:54AM 29.1750 -93.1292 98° East 524 603 45,000  Level Houston Center
11:55AM 29.1506 -92.9297 98° East 528 608 45,000  Level Houston Center
11:56AM 29.1300 -92.7664 98° East 525 604 45,000  Level Houston Center
11:57AM 29.1089 -92.6017 98° East 524 603 45,000  Level Houston Center
11:58AM 29.0867 -92.4369 99° East 526 605 45,000  Level Houston Center
11:59AM 29.0647 -92.2717 99° East 527 606 45,000  Level Houston Center
12:00PM 29.0439 -92.1067 98° East 526 605 45,000  Level Houston Center
12:01PM 29.0169 -91.9161 99° East 526 605 45,000  Level Houston Center
12:02PM 28.9953 -91.7500 98° East 529 609 45,000  Level Houston Center
12:03PM 28.9722 -91.5825 99° East 533 613 45,000  Level Houston Center
12:04PM 28.9486 -91.4147 99° East 536 617 45,000  Level Houston Center
12:05PM 28.9208 -91.2169 99° East 530 610 45,000  Level Houston Center
12:06PM 28.8981 -91.0525 99° East 529 609 45,000  Level Houston Center
12:07PM 28.8744 -90.8875 99° East 529 609 45,000  Level Houston Center
12:08PM 28.8508 -90.7225 99° East 528 608 45,000  Level Houston Center
12:09PM 28.8256 -90.5553 100° East 532 612 45,000  Level Houston Center
12:10PM 28.8017 -90.3900 99° East 534 615 45,000  Level Houston Center
12:11PM 28.7722 -90.1931 100° East 530 610 45,000  Level Houston Center
12:12PM 28.7478 -90.0286 100° East 529 609 45,000  Level Houston Center
12:13PM 28.7208 -89.8658 101° East 526 605 45,000  Level Houston Center
12:14PM 28.6950 -89.7022 100° East 528 608 45,000  Level Houston Center
12:15PM 28.6672 -89.5344 101° East 536 617 45,000  Level Houston Center
12:16PM 28.6339 -89.3369 101° East 534 615 45,000  Level Houston Center
12:17PM 28.6069 -89.1736 101° East 530 610 45,000  Level Houston Center
12:18PM 28.5789 -89.0097 101° East 529 609 45,000  Level Houston Center
12:20PM 28.5506 -88.8456 101° East 529 609 45,000  Level Houston Center
12:21PM 28.5233 -88.6803 101° East 535 616 45,000  Level Houston Center
12:22PM 28.4881 -88.4828 101° East 534 615 45,000  Level Houston Center
12:22PM 28.4733 -88.4175 104° East 533 613 45,000  Level Jacksonville Center
12:23PM 28.4486 -88.2653 100° East 521 600 45,000  Level Jacksonville Center
12:24PM 28.4178 -88.1008 102° East 521 600 45,000  Level Jacksonville Center
12:25PM 28.3889 -87.9389 101° East 521 600 45,000  Level Jacksonville Center
12:26PM 28.3600 -87.7678 101° East 528 608 45,000  Level Jacksonville Center
12:27PM 28.3328 -87.6036 101° East 523 602 45,000  Level Jacksonville Center
12:28PM 28.3031 -87.4422 102° East 515 593 45,000  Level Jacksonville Center
12:29PM 28.2714 -87.2758 102° East 520 598 45,000  Level Jacksonville Center
12:30PM 28.2414 -87.1119 102° East 527 606 45,000  Level Jacksonville Center
12:31PM 28.2111 -86.9483 102° East 533 613 45,000  Level Jacksonville Center
12:32PM 28.1789 -86.7822 102° East 527 606 45,000  Level Jacksonville Center
12:33PM 28.1481 -86.6208 102° East 522 601 45,000  Level Jacksonville Center
12:34PM 28.1172 -86.4575 102° East 527 606 45,000  Level Jacksonville Center
12:35PM 28.0861 -86.2942 102° East 535 616 45,000  Level Jacksonville Center
12:36PM 28.0531 -86.1261 103° East 529 609 45,000  Level Jacksonville Center
12:37PM 28.0089 -85.9694 108° East 529 609 45,000  Level Jacksonville Center
12:38PM 27.9583 -85.8106 110° East 529 609 45,000  Level Jacksonville Center
12:40PM 27.8528 -85.4692 109° East 551 634 45,000  Level Miami Center
12:41PM 27.8017 -85.3106 110° East 536 617 45,000  Level Miami Center
12:42PM 27.7483 -85.1544 111° Southeast 531 611 45,000  Level Miami Center
12:43PM 27.7008 -85.0011 109° East 531 611 45,000  Level Miami Center
12:44PM 27.6453 -84.8378 111° Southeast 531 611 45,000  Level Miami Center
12:45PM 27.5914 -84.6822 111° Southeast 531 611 45,000  Level Miami Center
12:46PM 27.5497 -84.5272 107° East 531 611 45,000  Level Miami Center
12:47PM 27.4911 -84.3689 113° Southeast 531 611 45,000  Level Miami Center
12:48PM 27.4453 -84.2094 108° East 538 619 45,000  Level Miami Center
12:49PM 27.3928 -84.0519 111° Southeast 538 619 45,000  Level Miami Center
12:50PM 27.3378 -83.8967 112° Southeast 533 613 45,000  Level Miami Center
12:51PM 27.2911 -83.7422 109° East 533 613 45,000  Level Miami Center
12:52PM 27.2378 -83.5872 111° Southeast 533 613 45,000  Level Miami Center
12:53PM 27.1844 -83.4325 111° Southeast 533 613 45,000  Level Miami Center
12:54PM 27.1353 -83.2758 109° East 533 613 45,000  Level Miami Center
12:56PM 27.0261 -82.9508 111° Southeast 528 608 45,000  Level Miami Center
12:57PM 26.9719 -82.7989 112° Southeast 528 608 45,000  Level Miami Center
12:58PM 26.9219 -82.6450 110° East 528 608 45,000 -60 Level Miami Center
12:59PM 26.8672 -82.4933 112° Southeast 528 608 44,900 -480 Descending Miami Center
01:00PM 26.8147 -82.3372 111° Southeast 528 608 44,100 -1,200 Descending Miami Center
01:01PM 26.7619 -82.1861 111° Southeast 523 602 42,600 -1,560 Descending Miami Center
01:02PM 26.7072 -82.0256 111° Southeast 528 608 41,000 -1,680 Descending Miami Center
01:03PM 26.6464 -81.8581 112° Southeast 551 634 39,300 -1,740 Descending Miami Center
01:04PM 26.5853 -81.6858 112° Southeast 581 669 37,600 -1,680 Descending Miami Center
01:05PM 26.5258 -81.5211 112° Southeast 586 674 36,000 -1,260 Descending Miami Center
01:06PM 26.4786 -81.3706 109° East 574 661 35,100 -540 Descending Miami Center
01:07PM 26.4186 -81.2083 112° Southeast 568 654 35,000 -60 Descending Miami Center
01:08PM 26.3608 -81.0464 112° Southeast 563 648 35,000  Level Miami Center
01:09PM 26.2947 -80.8678 112° Southeast 563 648 35,000  Level Miami Center
01:10PM 26.2461 -80.7367 112° Southeast 563 648 35,000  Level Miami Center
01:11PM 26.1881 -80.5564 110° East 563 648 35,000  Level Miami Center
01:12PM 26.1294 -80.3972 112° Southeast 563 648 35,000  Level Miami Center
01:13PM 26.0706 -80.2336 112° Southeast 563 648 35,000 -300 Level Miami Center
01:14PM 26.0056 -80.0586 112° Southeast 563 648 34,500 -1,080 Descending Miami Center
01:15PM 25.9444 -79.8950 113° Southeast 563 648 32,900 -1,680 Descending Miami Center
01:16PM 25.8908 -79.7458 112° Southeast 546 628 31,200 -1,680 Descending Miami Center
01:17PM 25.8372 -79.6017 112° Southeast 524 603 29,600 -1,560 Descending Miami Center
01:18PM 25.7875 -79.4758 114° Southeast 495 570 28,100 -1,740 Descending Miami Center
01:19PM 25.7317 -79.3225 112° Southeast 495 570 26,200 -1,860 Descending Miami Center
01:20PM 25.6794 -79.1900 114° Southeast 480 552 24,400 -1,800 Descending Miami Center
01:21PM 25.6333 -79.0600 111° Southeast 463 533 22,600 -1,860 Descending Miami Center
01:22PM 25.5933 -78.9442 111° Southeast 436 502 20,700 -1,800 Descending Miami Center
01:23PM 25.5447 -78.8258 114° Southeast 416 479 19,100 -1,500 Descending Miami Center
01:24PM 25.5022 -78.7100 112° Southeast 411 473 17,800 -1,260 Descending Miami Center
01:25PM 25.4597 -78.6011 113° Southeast 401 461 16,600 -1,140 Descending Miami Center
01:26PM 25.4106 -78.5108 121° Southeast 388 447 15,600 -1,200 Descending Miami Center
01:27PM 25.3806 -78.3975 106° East 378 435 14,300 -1,200 Descending Miami Center
01:28PM 25.3397 -78.2914 113° Southeast 378 435 13,200 -960 Descending Miami Center
01:29PM 25.2989 -78.1875 113° Southeast 373 429 12,400 -840 Descending Miami Center